sensor_id;sensor_type;location;lat;lon;timestamp;temperature;humidity
3268;DHT22;1646;52.450;13.326;2022-10-22T00:03:56;15.70;99.90
3268;DHT22;1646;52.450;13.326;2022-10-22T00:08:54;15.70;99.90
3268;DHT22;1646;52.450;13.326;2022-10-22T00:13:52;15.70;99.90
3268;DHT22;1646;52.450;13.326;2022-10-22T00:18:51;15.70;99.90
3268;DHT22;1646;52.450;13.326;2022-10-22T00:23:50;15.70;99.90
3268;DHT22;1646;52.450;13.326;2022-10-22T00:28:48;15.70;99.90
3268;DHT22;1646;52.450;13.326;2022-10-22T00:33:46;15.70;99.90
3268;DHT22;1646;52.450;13.326;2022-10-22T00:38:46;15.70;99.90
3268;DHT22;1646;52.450;13.326;2022-10-22T00:43:58;15.70;99.90
3268;DHT22;1646;52.450;13.326;2022-10-22T00:48:59;15.70;99.90
3268;DHT22;1646;52.450;13.326;2022-10-22T00:54:03;15.70;99.90
3268;DHT22;1646;52.450;13.326;2022-10-22T00:59:04;15.60;99.90
3268;DHT22;1646;52.450;13.326;2022-10-22T01:04:03;15.50;99.90
3268;DHT22;1646;52.450;13.326;2022-10-22T01:09:11;15.50;99.90
3268;DHT22;1646;52.450;13.326;2022-10-22T01:14:16;15.50;99.90
3268;DHT22;1646;52.450;13.326;2022-10-22T01:19:28;15.50;99.90
3268;DHT22;1646;52.450;13.326;2022-10-22T01:24:37;15.30;99.90
3268;DHT22;1646;52.450;13.326;2022-10-22T01:29:42;15.30;99.90
3268;DHT22;1646;52.450;13.326;2022-10-22T01:34:47;15.30;99.90
3268;DHT22;1646;52.450;13.326;2022-10-22T01:39:46;15.30;99.90
3268;DHT22;1646;52.450;13.326;2022-10-22T01:44:47;15.30;99.90
3268;DHT22;1646;52.450;13.326;2022-10-22T01:50:03;15.30;99.90
3268;DHT22;1646;52.450;13.326;2022-10-22T01:55:15;15.30;99.90
3268;DHT22;1646;52.450;13.326;2022-10-22T02:00:16;15.30;99.90
3268;DHT22;1646;52.450;13.326;2022-10-22T02:05:20;15.30;99.90
3268;DHT22;1646;52.450;13.326;2022-10-22T02:10:20;15.30;99.90
3268;DHT22;1646;52.450;13.326;2022-10-22T02:15:22;15.40;99.90
3268;DHT22;1646;52.450;13.326;2022-10-22T02:20:23;15.40;99.90
3268;DHT22;1646;52.450;13.326;2022-10-22T02:25:24;15.30;99.90
3268;DHT22;1646;52.450;13.326;2022-10-22T02:30:25;15.30;99.90
3268;DHT22;1646;52.450;13.326;2022-10-22T02:35:25;15.30;99.90
3268;DHT22;1646;52.450;13.326;2022-10-22T02:40:24;15.30;99.90
3268;DHT22;1646;52.450;13.326;2022-10-22T02:45:24;15.30;99.90
3268;DHT22;1646;52.450;13.326;2022-10-22T02:50:22;15.20;99.90
3268;DHT22;1646;52.450;13.326;2022-10-22T02:55:20;15.20;99.90
3268;DHT22;1646;52.450;13.326;2022-10-22T03:00:18;15.10;99.90
3268;DHT22;1646;52.450;13.326;2022-10-22T03:05:18;15.20;99.90
3268;DHT22;1646;52.450;13.326;2022-10-22T03:10:16;15.10;99.90
3268;DHT22;1646;52.450;13.326;2022-10-22T03:15:14;15.10;99.90
3268;DHT22;1646;52.450;13.326;2022-10-22T03:20:12;15.20;99.90
3268;DHT22;1646;52.450;13.326;2022-10-22T03:25:13;15.20;99.90
3268;DHT22;1646;52.450;13.326;2022-10-22T03:30:14;15.20;99.90
3268;DHT22;1646;52.450;13.326;2022-10-22T03:35:12;15.20;99.90
3268;DHT22;1646;52.450;13.326;2022-10-22T03:40:12;15.20;99.90
3268;DHT22;1646;52.450;13.326;2022-10-22T03:45:10;15.10;99.90
3268;DHT22;1646;52.450;13.326;2022-10-22T03:50:09;15.10;99.90
3268;DHT22;1646;52.450;13.326;2022-10-22T03:55:08;15.10;99.90
3268;DHT22;1646;52.450;13.326;2022-10-22T04:00:08;15.10;99.90
3268;DHT22;1646;52.450;13.326;2022-10-22T04:05:07;15.10;99.90
3268;DHT22;1646;52.450;13.326;2022-10-22T04:10:06;15.10;99.90
3268;DHT22;1646;52.450;13.326;2022-10-22T04:15:05;15.10;99.90
3268;DHT22;1646;52.450;13.326;2022-10-22T04:20:05;15.10;99.90
3268;DHT22;1646;52.450;13.326;2022-10-22T04:25:04;15.10;99.90
3268;DHT22;1646;52.450;13.326;2022-10-22T04:30:02;15.10;99.90
3268;DHT22;1646;52.450;13.326;2022-10-22T04:35:00;15.00;99.90
3268;DHT22;1646;52.450;13.326;2022-10-22T04:40:00;15.00;99.90
3268;DHT22;1646;52.450;13.326;2022-10-22T04:44:58;14.90;99.90
3268;DHT22;1646;52.450;13.326;2022-10-22T04:49:56;14.90;99.90
3268;DHT22;1646;52.450;13.326;2022-10-22T04:54:53;14.90;99.90
3268;DHT22;1646;52.450;13.326;2022-10-22T04:59:53;14.90;99.90
3268;DHT22;1646;52.450;13.326;2022-10-22T05:04:51;14.90;99.90
3268;DHT22;1646;52.450;13.326;2022-10-22T05:09:48;14.90;99.90
3268;DHT22;1646;52.450;13.326;2022-10-22T05:14:46;15.00;99.90
3268;DHT22;1646;52.450;13.326;2022-10-22T05:19:46;15.00;99.90
3268;DHT22;1646;52.450;13.326;2022-10-22T05:24:44;15.00;99.90
3268;DHT22;1646;52.450;13.326;2022-10-22T05:29:41;15.00;99.90
3268;DHT22;1646;52.450;13.326;2022-10-22T05:34:39;14.90;99.90
3268;DHT22;1646;52.450;13.326;2022-10-22T05:39:39;14.90;99.90
3268;DHT22;1646;52.450;13.326;2022-10-22T05:44:37;14.90;99.90
3268;DHT22;1646;52.450;13.326;2022-10-22T05:49:36;14.90;99.90
3268;DHT22;1646;52.450;13.326;2022-10-22T05:54:34;14.80;99.90
3268;DHT22;1646;52.450;13.326;2022-10-22T05:59:33;14.80;99.90
3268;DHT22;1646;52.450;13.326;2022-10-22T06:04:31;14.80;99.90
3268;DHT22;1646;52.450;13.326;2022-10-22T06:09:31;14.80;99.90
3268;DHT22;1646;52.450;13.326;2022-10-22T06:14:32;14.80;99.90
3268;DHT22;1646;52.450;13.326;2022-10-22T06:19:30;14.80;99.90
3268;DHT22;1646;52.450;13.326;2022-10-22T06:24:28;14.80;99.90
3268;DHT22;1646;52.450;13.326;2022-10-22T06:29:26;14.80;99.90
3268;DHT22;1646;52.450;13.326;2022-10-22T06:34:26;14.80;99.90
3268;DHT22;1646;52.450;13.326;2022-10-22T06:39:23;14.80;99.90
3268;DHT22;1646;52.450;13.326;2022-10-22T06:44:21;14.90;99.90
3268;DHT22;1646;52.450;13.326;2022-10-22T06:49:20;14.90;99.90
3268;DHT22;1646;52.450;13.326;2022-10-22T06:54:19;14.90;99.90
3268;DHT22;1646;52.450;13.326;2022-10-22T06:59:17;14.90;99.90
3268;DHT22;1646;52.450;13.326;2022-10-22T07:04:15;14.90;99.90
3268;DHT22;1646;52.450;13.326;2022-10-22T07:09:13;14.90;99.90
3268;DHT22;1646;52.450;13.326;2022-10-22T07:14:13;14.90;99.90
3268;DHT22;1646;52.450;13.326;2022-10-22T07:19:12;15.00;99.90
3268;DHT22;1646;52.450;13.326;2022-10-22T07:24:10;15.00;99.90
3268;DHT22;1646;52.450;13.326;2022-10-22T07:29:08;15.00;99.90
3268;DHT22;1646;52.450;13.326;2022-10-22T07:34:08;15.10;99.90
3268;DHT22;1646;52.450;13.326;2022-10-22T07:39:06;15.20;99.90
3268;DHT22;1646;52.450;13.326;2022-10-22T07:44:04;15.30;99.90
3268;DHT22;1646;52.450;13.326;2022-10-22T07:49:02;15.30;99.90
3268;DHT22;1646;52.450;13.326;2022-10-22T07:54:01;15.30;99.90
3268;DHT22;1646;52.450;13.326;2022-10-22T07:58:59;15.30;99.90
3268;DHT22;1646;52.450;13.326;2022-10-22T08:04:02;15.50;99.90
3268;DHT22;1646;52.450;13.326;2022-10-22T08:09:02;15.40;99.90
3268;DHT22;1646;52.450;13.326;2022-10-22T08:14:00;15.40;99.90
3268;DHT22;1646;52.450;13.326;2022-10-22T08:18:58;15.50;99.90
3268;DHT22;1646;52.450;13.326;2022-10-22T08:23:56;15.60;99.90
3268;DHT22;1646;52.450;13.326;2022-10-22T08:28:55;15.70;99.90
3268;DHT22;1646;52.450;13.326;2022-10-22T08:33:53;15.70;99.90
3268;DHT22;1646;52.450;13.326;2022-10-22T08:38:51;15.80;99.90
3268;DHT22;1646;52.450;13.326;2022-10-22T08:44:18;15.80;99.90
3268;DHT22;1646;52.450;13.326;2022-10-22T08:49:20;15.80;99.90
3268;DHT22;1646;52.450;13.326;2022-10-22T08:54:27;15.70;99.90
3268;DHT22;1646;52.450;13.326;2022-10-22T08:59:33;15.90;99.90
3268;DHT22;1646;52.450;13.326;2022-10-22T09:04:38;16.10;99.90
3268;DHT22;1646;52.450;13.326;2022-10-22T09:09:42;16.30;99.90
3268;DHT22;1646;52.450;13.326;2022-10-22T09:14:44;16.40;99.90
3268;DHT22;1646;52.450;13.326;2022-10-22T09:19:51;16.30;99.90
3268;DHT22;1646;52.450;13.326;2022-10-22T09:24:56;16.30;99.90
3268;DHT22;1646;52.450;13.326;2022-10-22T09:29:57;16.50;99.90
3268;DHT22;1646;52.450;13.326;2022-10-22T09:34:56;16.50;99.90
3268;DHT22;1646;52.450;13.326;2022-10-22T09:39:56;16.50;99.90
3268;DHT22;1646;52.450;13.326;2022-10-22T09:44:57;16.50;99.90
3268;DHT22;1646;52.450;13.326;2022-10-22T09:50:06;16.50;99.90
3268;DHT22;1646;52.450;13.326;2022-10-22T09:55:12;16.50;99.90
3268;DHT22;1646;52.450;13.326;2022-10-22T10:00:18;16.70;99.90
3268;DHT22;1646;52.450;13.326;2022-10-22T10:05:19;16.90;99.90
3268;DHT22;1646;52.450;13.326;2022-10-22T10:10:23;16.90;99.90
3268;DHT22;1646;52.450;13.326;2022-10-22T10:15:27;16.90;99.90
3268;DHT22;1646;52.450;13.326;2022-10-22T10:20:32;16.90;99.90
3268;DHT22;1646;52.450;13.326;2022-10-22T10:25:41;16.90;99.90
3268;DHT22;1646;52.450;13.326;2022-10-22T10:30:51;16.90;99.90
3268;DHT22;1646;52.450;13.326;2022-10-22T10:35:59;17.00;99.90
3268;DHT22;1646;52.450;13.326;2022-10-22T10:41:07;17.10;99.90
3268;DHT22;1646;52.450;13.326;2022-10-22T10:46:15;17.20;99.90
3268;DHT22;1646;52.450;13.326;2022-10-22T10:51:23;17.10;99.90
3268;DHT22;1646;52.450;13.326;2022-10-22T10:56:32;17.10;99.90
3268;DHT22;1646;52.450;13.326;2022-10-22T11:01:41;17.50;99.90
3268;DHT22;1646;52.450;13.326;2022-10-22T11:06:44;19.80;99.90
3268;DHT22;1646;52.450;13.326;2022-10-22T11:11:47;23.10;99.90
3268;DHT22;1646;52.450;13.326;2022-10-22T11:16:52;25.60;99.90
3268;DHT22;1646;52.450;13.326;2022-10-22T11:21:55;26.30;99.90
3268;DHT22;1646;52.450;13.326;2022-10-22T11:26:59;25.80;99.90
3268;DHT22;1646;52.450;13.326;2022-10-22T11:32:01;23.60;99.90
3268;DHT22;1646;52.450;13.326;2022-10-22T11:37:00;23.70;99.90
3268;DHT22;1646;52.450;13.326;2022-10-22T11:42:02;24.40;99.90
3268;DHT22;1646;52.450;13.326;2022-10-22T11:47:16;24.50;99.90
3268;DHT22;1646;52.450;13.326;2022-10-22T11:52:24;23.40;99.90
3268;DHT22;1646;52.450;13.326;2022-10-22T11:57:28;23.00;99.90
3268;DHT22;1646;52.450;13.326;2022-10-22T12:02:43;22.70;99.90
3268;DHT22;1646;52.450;13.326;2022-10-22T12:07:51;22.70;99.90
3268;DHT22;1646;52.450;13.326;2022-10-22T12:12:54;22.30;99.90
3268;DHT22;1646;52.450;13.326;2022-10-22T12:17:58;21.80;99.90
3268;DHT22;1646;52.450;13.326;2022-10-22T12:22:57;21.50;99.90
3268;DHT22;1646;52.450;13.326;2022-10-22T12:27:57;21.50;99.90
3268;DHT22;1646;52.450;13.326;2022-10-22T12:32:59;21.30;99.90
3268;DHT22;1646;52.450;13.326;2022-10-22T12:38:00;21.20;99.90
3268;DHT22;1646;52.450;13.326;2022-10-22T12:43:00;21.30;99.90
3268;DHT22;1646;52.450;13.326;2022-10-22T12:48:02;21.10;99.90
3268;DHT22;1646;52.450;13.326;2022-10-22T12:53:01;20.70;99.90
3268;DHT22;1646;52.450;13.326;2022-10-22T12:57:59;20.50;99.90
3268;DHT22;1646;52.450;13.326;2022-10-22T13:03:05;20.40;99.90
3268;DHT22;1646;52.450;13.326;2022-10-22T13:08:08;20.50;99.90
3268;DHT22;1646;52.450;13.326;2022-10-22T13:18:23;20.40;99.90
3268;DHT22;1646;52.450;13.326;2022-10-22T13:23:23;20.30;99.90
3268;DHT22;1646;52.450;13.326;2022-10-22T13:28:22;20.00;99.90
3268;DHT22;1646;52.450;13.326;2022-10-22T13:33:23;19.90;99.90
3268;DHT22;1646;52.450;13.326;2022-10-22T13:38:25;20.00;99.90
3268;DHT22;1646;52.450;13.326;2022-10-22T13:43:23;20.10;99.90
3268;DHT22;1646;52.450;13.326;2022-10-22T13:48:24;20.20;99.90
3268;DHT22;1646;52.450;13.326;2022-10-22T13:53:24;20.70;99.90
3268;DHT22;1646;52.450;13.326;2022-10-22T13:58:23;21.40;99.90
3268;DHT22;1646;52.450;13.326;2022-10-22T14:03:25;21.20;99.90
3268;DHT22;1646;52.450;13.326;2022-10-22T14:08:26;21.00;99.90
3268;DHT22;1646;52.450;13.326;2022-10-22T14:13:24;20.60;99.90
3268;DHT22;1646;52.450;13.326;2022-10-22T14:18:26;20.60;99.90
3268;DHT22;1646;52.450;13.326;2022-10-22T14:23:29;20.60;99.90
3268;DHT22;1646;52.450;13.326;2022-10-22T14:28:27;20.60;99.90
3268;DHT22;1646;52.450;13.326;2022-10-22T14:33:38;20.40;99.90
3268;DHT22;1646;52.450;13.326;2022-10-22T14:38:36;20.40;99.90
3268;DHT22;1646;52.450;13.326;2022-10-22T14:43:34;20.40;99.90
3268;DHT22;1646;52.450;13.326;2022-10-22T14:48:32;20.30;99.90
3268;DHT22;1646;52.450;13.326;2022-10-22T14:53:31;20.30;99.90
3268;DHT22;1646;52.450;13.326;2022-10-22T14:58:30;20.30;99.90
3268;DHT22;1646;52.450;13.326;2022-10-22T15:03:28;20.40;99.90
3268;DHT22;1646;52.450;13.326;2022-10-22T15:08:27;20.60;99.90
3268;DHT22;1646;52.450;13.326;2022-10-22T15:13:27;20.90;99.90
3268;DHT22;1646;52.450;13.326;2022-10-22T15:18:26;21.70;99.90
3268;DHT22;1646;52.450;13.326;2022-10-22T15:23:25;23.30;99.90
3268;DHT22;1646;52.450;13.326;2022-10-22T15:28:23;23.90;99.90
3268;DHT22;1646;52.450;13.326;2022-10-22T15:33:23;23.90;99.90
3268;DHT22;1646;52.450;13.326;2022-10-22T15:38:26;23.10;99.90
3268;DHT22;1646;52.450;13.326;2022-10-22T15:43:29;22.10;99.90
3268;DHT22;1646;52.450;13.326;2022-10-22T15:48:29;21.30;99.90
3268;DHT22;1646;52.450;13.326;2022-10-22T15:53:27;20.80;99.90
3268;DHT22;1646;52.450;13.326;2022-10-22T15:58:25;20.50;99.90
3268;DHT22;1646;52.450;13.326;2022-10-22T16:03:23;20.10;99.90
3268;DHT22;1646;52.450;13.326;2022-10-22T16:08:23;19.90;99.90
3268;DHT22;1646;52.450;13.326;2022-10-22T16:13:21;19.60;99.90
3268;DHT22;1646;52.450;13.326;2022-10-22T16:18:20;19.30;99.90
3268;DHT22;1646;52.450;13.326;2022-10-22T16:23:19;19.00;99.90
3268;DHT22;1646;52.450;13.326;2022-10-22T16:28:18;18.80;99.90
3268;DHT22;1646;52.450;13.326;2022-10-22T16:33:16;18.60;99.90
3268;DHT22;1646;52.450;13.326;2022-10-22T16:38:14;18.40;99.90
3268;DHT22;1646;52.450;13.326;2022-10-22T16:43:14;18.30;99.90
3268;DHT22;1646;52.450;13.326;2022-10-22T16:48:13;18.10;99.90
3268;DHT22;1646;52.450;13.326;2022-10-22T16:53:11;18.00;99.90
3268;DHT22;1646;52.450;13.326;2022-10-22T16:58:09;17.80;99.90
3268;DHT22;1646;52.450;13.326;2022-10-22T17:03:09;17.70;99.90
3268;DHT22;1646;52.450;13.326;2022-10-22T17:08:09;17.50;99.90
3268;DHT22;1646;52.450;13.326;2022-10-22T17:13:07;17.40;99.90
3268;DHT22;1646;52.450;13.326;2022-10-22T17:18:05;17.30;99.90
3268;DHT22;1646;52.450;13.326;2022-10-22T17:23:03;17.20;99.90
3268;DHT22;1646;52.450;13.326;2022-10-22T17:28:02;17.10;99.90
3268;DHT22;1646;52.450;13.326;2022-10-22T17:33:00;17.10;99.90
3268;DHT22;1646;52.450;13.326;2022-10-22T17:37:58;17.00;99.90
3268;DHT22;1646;52.450;13.326;2022-10-22T17:42:56;16.90;99.90
3268;DHT22;1646;52.450;13.326;2022-10-22T17:47:55;16.90;99.90
3268;DHT22;1646;52.450;13.326;2022-10-22T17:52:53;16.90;99.90
3268;DHT22;1646;52.450;13.326;2022-10-22T17:57:52;17.00;99.90
3268;DHT22;1646;52.450;13.326;2022-10-22T18:02:50;17.00;99.90
3268;DHT22;1646;52.450;13.326;2022-10-22T18:07:53;17.10;99.90
3268;DHT22;1646;52.450;13.326;2022-10-22T18:12:50;17.10;99.90
3268;DHT22;1646;52.450;13.326;2022-10-22T18:17:48;17.20;99.90
3268;DHT22;1646;52.450;13.326;2022-10-22T18:22:46;17.20;99.90
3268;DHT22;1646;52.450;13.326;2022-10-22T18:27:46;17.20;99.90
3268;DHT22;1646;52.450;13.326;2022-10-22T18:32:44;17.20;99.90
3268;DHT22;1646;52.450;13.326;2022-10-22T18:37:42;17.20;99.90
3268;DHT22;1646;52.450;13.326;2022-10-22T18:42:40;17.20;99.90
3268;DHT22;1646;52.450;13.326;2022-10-22T18:47:40;17.20;99.90
3268;DHT22;1646;52.450;13.326;2022-10-22T18:52:38;17.10;99.90
3268;DHT22;1646;52.450;13.326;2022-10-22T18:57:37;17.10;99.90
3268;DHT22;1646;52.450;13.326;2022-10-22T19:02:36;17.00;99.90
3268;DHT22;1646;52.450;13.326;2022-10-22T19:07:36;17.00;99.90
3268;DHT22;1646;52.450;13.326;2022-10-22T19:12:34;16.90;99.90
3268;DHT22;1646;52.450;13.326;2022-10-22T19:17:33;16.80;99.90
3268;DHT22;1646;52.450;13.326;2022-10-22T19:22:31;16.80;99.90
3268;DHT22;1646;52.450;13.326;2022-10-22T19:27:30;16.70;99.90
3268;DHT22;1646;52.450;13.326;2022-10-22T19:32:28;16.70;99.90
3268;DHT22;1646;52.450;13.326;2022-10-22T19:37:27;16.70;99.90
3268;DHT22;1646;52.450;13.326;2022-10-22T19:42:24;16.70;99.90
3268;DHT22;1646;52.450;13.326;2022-10-22T19:47:24;16.60;99.90
3268;DHT22;1646;52.450;13.326;2022-10-22T19:52:22;16.50;99.90
3268;DHT22;1646;52.450;13.326;2022-10-22T19:57:20;16.50;99.90
3268;DHT22;1646;52.450;13.326;2022-10-22T20:02:18;16.30;99.90
3268;DHT22;1646;52.450;13.326;2022-10-22T20:07:17;16.30;99.90
3268;DHT22;1646;52.450;13.326;2022-10-22T20:12:15;16.30;99.90
3268;DHT22;1646;52.450;13.326;2022-10-22T20:17:13;16.20;99.90
3268;DHT22;1646;52.450;13.326;2022-10-22T20:22:11;16.20;99.90
3268;DHT22;1646;52.450;13.326;2022-10-22T20:27:15;16.30;99.90
3268;DHT22;1646;52.450;13.326;2022-10-22T20:32:13;16.30;99.90
3268;DHT22;1646;52.450;13.326;2022-10-22T20:37:11;16.30;99.90
3268;DHT22;1646;52.450;13.326;2022-10-22T20:42:09;16.30;99.90
3268;DHT22;1646;52.450;13.326;2022-10-22T20:47:11;16.20;99.90
3268;DHT22;1646;52.450;13.326;2022-10-22T20:52:09;16.10;99.90
3268;DHT22;1646;52.450;13.326;2022-10-22T20:57:07;16.10;99.90
3268;DHT22;1646;52.450;13.326;2022-10-22T21:02:08;16.10;99.90
3268;DHT22;1646;52.450;13.326;2022-10-22T21:07:07;16.10;99.90
3268;DHT22;1646;52.450;13.326;2022-10-22T21:12:05;16.20;99.90
3268;DHT22;1646;52.450;13.326;2022-10-22T21:17:03;16.20;99.90
3268;DHT22;1646;52.450;13.326;2022-10-22T21:22:05;16.20;99.90
3268;DHT22;1646;52.450;13.326;2022-10-22T21:27:03;16.30;99.90
3268;DHT22;1646;52.450;13.326;2022-10-22T21:32:03;16.30;99.90
3268;DHT22;1646;52.450;13.326;2022-10-22T21:37:01;16.40;99.90
3268;DHT22;1646;52.450;13.326;2022-10-22T21:42:00;16.40;99.90
3268;DHT22;1646;52.450;13.326;2022-10-22T21:46:58;16.40;99.90
3268;DHT22;1646;52.450;13.326;2022-10-22T21:51:56;16.40;99.90
3268;DHT22;1646;52.450;13.326;2022-10-22T21:56:55;16.40;99.90
3268;DHT22;1646;52.450;13.326;2022-10-22T22:01:55;16.30;99.90
3268;DHT22;1646;52.450;13.326;2022-10-22T22:06:53;16.30;99.90
3268;DHT22;1646;52.450;13.326;2022-10-22T22:11:51;16.30;99.90
3268;DHT22;1646;52.450;13.326;2022-10-22T22:16:48;16.40;99.90
3268;DHT22;1646;52.450;13.326;2022-10-22T22:21:48;16.40;99.90
3268;DHT22;1646;52.450;13.326;2022-10-22T22:26:48;16.30;99.90
3268;DHT22;1646;52.450;13.326;2022-10-22T22:31:46;16.20;99.90
3268;DHT22;1646;52.450;13.326;2022-10-22T22:36:44;16.20;99.90
3268;DHT22;1646;52.450;13.326;2022-10-22T22:41:45;16.10;99.90
3268;DHT22;1646;52.450;13.326;2022-10-22T22:46:43;16.00;99.90
3268;DHT22;1646;52.450;13.326;2022-10-22T22:51:41;16.00;99.90
3268;DHT22;1646;52.450;13.326;2022-10-22T22:56:40;15.90;99.90
3268;DHT22;1646;52.450;13.326;2022-10-22T23:01:39;15.90;99.90
3268;DHT22;1646;52.450;13.326;2022-10-22T23:06:37;15.80;99.90
3268;DHT22;1646;52.450;13.326;2022-10-22T23:11:36;15.80;99.90
3268;DHT22;1646;52.450;13.326;2022-10-22T23:16:36;15.80;99.90
3268;DHT22;1646;52.450;13.326;2022-10-22T23:21:38;15.80;99.90
3268;DHT22;1646;52.450;13.326;2022-10-22T23:26:38;15.70;99.90
3268;DHT22;1646;52.450;13.326;2022-10-22T23:31:36;15.70;99.90
3268;DHT22;1646;52.450;13.326;2022-10-22T23:36:36;15.70;99.90
3268;DHT22;1646;52.450;13.326;2022-10-22T23:41:35;15.60;99.90
3268;DHT22;1646;52.450;13.326;2022-10-22T23:46:33;15.50;99.90
3268;DHT22;1646;52.450;13.326;2022-10-22T23:51:31;15.40;99.90
3268;DHT22;1646;52.450;13.326;2022-10-22T23:56:31;15.30;99.90
